Time;durP1;ratioP1;P1;durP2;ratioP2;P2;SDS_P1;SDS_P2;PMS_P1;PMS_P2;Temp;Humidity;BMP_temperature;BMP_pressure;BME280_temperature;BME280_humidity;BME280_pressure;Samples;Min_cycle;Max_cycle;Signal;HPM_P1;HPM_P2
2021/07/22 00:01:50;;;;;;;10.35;7.32;;;20.20;92.50;;;;;;4980266;28;20419;-91
2021/07/22 00:15:41;;;;;;;11.20;7.18;;;20.10;93.00;;;;;;4904046;29;20059;-93
2021/07/22 00:18:09;;;;;;;9.77;6.93;;;20.00;93.20;;;;;;4891328;29;20071;-92
2021/07/22 00:24:20;;;;;;;10.23;6.40;;;20.00;93.60;;;;;;5020581;28;20042;-91
2021/07/22 00:30:31;;;;;;;12.90;6.93;;;20.00;93.70;;;;;;5020730;28;20362;-90
2021/07/22 00:41:04;;;;;;;;;;;;;;;;;;;;;
2021/07/22 00:47:09;;;;;;;11.07;6.55;;;20.00;93.90;;;;;;5024028;28;20120;-89
2021/07/22 00:49:44;;;;;;;9.23;6.38;;;19.90;93.90;;;;;;5030899;28;20041;-91
2021/07/22 00:52:16;;;;;;;11.65;6.57;;;19.90;93.90;;;;;;5026909;28;20046;-93
2021/07/22 00:54:57;;;;;;;14.82;7.47;;;19.90;93.90;;;;;;5035900;28;20306;-92
2021/07/22 00:57:28;;;;;;;10.05;6.47;;;19.90;93.80;;;;;;5022584;28;20550;-91
2021/07/22 00:59:53;;;;;;;11.65;6.05;;;19.90;93.80;;;;;;5041685;28;20680;-91
2021/07/22 01:02:19;;;;;;;9.05;6.20;;;19.90;93.80;;;;;;5020042;28;20042;-91
2021/07/22 01:04:44;;;;;;;11.27;6.43;;;19.90;93.80;;;;;;5019816;28;20034;-92
2021/07/22 01:07:12;;;;;;;10.85;6.80;;;19.90;93.80;;;;;;5036915;28;20037;-91
2021/07/22 01:09:44;;;;;;;8.18;6.05;;;19.90;93.90;;;;;;5035095;28;20041;-92
2021/07/22 01:12:12;;;;;;;7.22;5.43;;;19.90;93.90;;;;;;5019368;28;20044;-92
2021/07/22 01:14:43;;;;;;;14.88;5.88;;;19.90;93.80;;;;;;5031627;28;20060;-92
2021/07/22 01:17:34;;;;;;;11.77;5.93;;;19.90;93.60;;;;;;5024508;28;20277;-91
2021/07/22 01:20:05;;;;;;;8.88;5.53;;;20.00;93.70;;;;;;5034531;28;20029;-91
2021/07/22 01:22:32;;;;;;;10.00;6.35;;;20.00;93.80;;;;;;5037073;28;20048;-91
2021/07/22 01:24:58;;;;;;;8.50;5.07;;;20.00;93.90;;;;;;5032723;28;20381;-90
2021/07/22 01:27:26;;;;;;;9.98;5.63;;;20.00;93.90;;;;;;5048293;28;20124;-91
2021/07/22 01:29:51;;;;;;;8.23;5.30;;;20.00;93.60;;;;;;5019014;28;20173;-91
2021/07/22 01:32:17;;;;;;;8.70;5.75;;;20.00;93.50;;;;;;5019077;28;20074;-91
2021/07/22 01:34:43;;;;;;;11.02;6.10;;;20.00;93.50;;;;;;5018847;28;20088;-91
2021/07/22 01:37:09;;;;;;;9.18;5.70;;;20.00;93.60;;;;;;5019199;28;20108;-92
2021/07/22 01:39:57;;;;;;;8.77;5.63;;;19.90;93.60;;;;;;5019327;28;20034;-92
2021/07/22 01:42:37;;;;;;;9.90;6.05;;;20.00;93.60;;;;;;5034798;28;20045;-93
2021/07/22 01:45:15;;;;;;;11.57;5.50;;;19.90;93.50;;;;;;5035349;28;20045;-91
2021/07/22 01:48:24;;;;;;;10.15;6.07;;;19.90;93.50;;;;;;5037438;28;20396;-90
2021/07/22 01:50:52;;;;;;;9.52;5.28;;;19.90;93.40;;;;;;5046710;28;20041;-91
2021/07/22 01:56:45;;;;;;;12.73;5.28;;;19.90;93.10;;;;;;5017790;28;20113;-93
2021/07/22 01:59:40;;;;;;;11.05;4.70;;;19.90;93.10;;;;;;5011254;28;20042;-92
2021/07/22 02:02:07;;;;;;;8.93;4.50;;;19.90;93.10;;;;;;5016685;28;20034;-93
2021/07/22 02:04:37;;;;;;;8.23;4.43;;;19.90;93.10;;;;;;5009543;28;20038;-94
2021/07/22 02:07:19;;;;;;;8.65;4.57;;;19.90;93.00;;;;;;5013151;28;20172;-94
2021/07/22 02:10:20;;;;;;;10.57;5.03;;;19.90;92.90;;;;;;5029130;28;20416;-92
2021/07/22 02:16:27;;;;;;;11.40;4.65;;;19.90;92.60;;;;;;5022480;28;20038;-90
2021/07/22 02:18:54;;;;;;;11.00;4.93;;;19.90;92.60;;;;;;5022749;28;20069;-90
2021/07/22 02:21:19;;;;;;;8.52;4.65;;;19.90;92.50;;;;;;5059546;28;20411;-89
2021/07/22 02:24:01;;;;;;;10.15;4.82;;;19.90;92.50;;;;;;5073345;28;20066;-90
2021/07/22 02:26:47;;;;;;;10.80;5.10;;;19.90;92.50;;;;;;5026648;28;20124;-90
2021/07/22 02:29:24;;;;;;;11.18;5.00;;;19.90;92.60;;;;;;5036075;28;20374;-91
2021/07/22 02:31:56;;;;;;;7.90;4.70;;;19.90;92.60;;;;;;5058888;28;20075;-90
2021/07/22 02:34:26;;;;;;;10.85;5.00;;;19.90;92.70;;;;;;5053333;28;20045;-90
2021/07/22 02:37:08;;;;;;;8.90;5.00;;;19.90;92.80;;;;;;5022160;28;20038;-89
2021/07/22 02:43:03;;;;;;;8.60;5.07;;;19.90;92.80;;;;;;4962667;29;20102;-91
2021/07/22 02:45:55;;;;;;;9.05;5.22;;;19.90;92.80;;;;;;4947070;29;20425;-93
2021/07/22 02:48:49;;;;;;;11.75;5.20;;;19.80;93.00;;;;;;5015891;28;20041;-90
2021/07/22 02:51:20;;;;;;;8.63;4.90;;;19.80;93.10;;;;;;5039793;28;20045;-91
2021/07/22 02:54:17;;;;;;;7.65;4.70;;;19.90;93.10;;;;;;5050230;28;20061;-91
2021/07/22 02:56:50;;;;;;;12.68;5.72;;;19.80;93.30;;;;;;5023440;28;20165;-90
2021/07/22 03:03:28;;;;;;;8.13;5.63;;;19.80;93.80;;;;;;5032900;28;20080;-91
2021/07/22 03:09:50;;;;;;;;;;;;;;;;;;;;;
2021/07/22 03:15:56;;;;;;;13.40;5.15;;;19.80;93.90;;;;;;4998536;28;20057;-91
2021/07/22 03:18:42;;;;;;;10.10;5.40;;;19.80;94.00;;;;;;5001112;28;20026;-91
2021/07/22 03:21:36;;;;;;;11.18;5.03;;;19.80;94.00;;;;;;5001571;28;20046;-90
2021/07/22 03:24:27;;;;;;;;;;;;;;;;;;;;;
2021/07/22 03:30:30;;;;;;;13.57;5.63;;;19.80;94.10;;;;;;5002428;28;20128;-91
2021/07/22 03:33:26;;;;;;;10.50;5.47;;;19.80;94.00;;;;;;5027733;28;20034;-91
2021/07/22 03:36:12;;;;;;;11.77;5.18;;;19.80;94.00;;;;;;5032876;28;20029;-90
2021/07/22 03:56:37;;;;;;;7.30;4.78;;;19.80;94.10;;;;;;4915609;29;20410;-90
2021/07/22 04:00:11;;;;;;;11.13;5.78;;;19.80;94.10;;;;;;4890185;29;20032;-91
2021/07/22 04:03:07;;;;;;;10.55;5.10;;;19.80;93.90;;;;;;4926679;29;20047;-91
2021/07/22 04:09:09;;;;;;;9.63;5.85;;;19.80;94.00;;;;;;4963913;28;20019;-91
2021/07/22 04:11:41;;;;;;;9.32;5.25;;;19.80;93.80;;;;;;4953180;29;20046;-91
2021/07/22 04:14:28;;;;;;;13.23;6.78;;;19.80;93.60;;;;;;4956884;28;20129;-92
2021/07/22 04:17:21;;;;;;;11.00;5.55;;;19.80;93.70;;;;;;4964565;28;20034;-90
2021/07/22 04:21:03;;;;;;;;;;;;;;;;;;;;;
2021/07/22 04:41:38;;;;;;;;;;;;;;;;;;;;;
2021/07/22 04:44:48;;;;;;;12.65;6.50;;;19.90;93.60;;;;;;4943480;29;20098;-94
2021/07/22 04:47:43;;;;;;;10.20;6.13;;;19.90;93.60;;;;;;4928423;29;20039;-95
2021/07/22 04:50:12;;;;;;;14.05;6.07;;;19.90;93.60;;;;;;5021371;28;20034;-94
2021/07/22 04:52:44;;;;;;;8.88;6.38;;;20.00;93.60;;;;;;5025003;28;20173;-91
2021/07/22 04:55:49;;;;;;;11.02;6.28;;;20.00;93.40;;;;;;5030714;28;20073;-93
2021/07/22 04:58:17;;;;;;;9.38;6.32;;;20.00;93.20;;;;;;5007496;28;20042;-93
2021/07/22 05:04:33;;;;;;;9.05;6.10;;;20.10;93.30;;;;;;5019673;28;20114;-94
2021/07/22 05:07:32;;;;;;;18.52;6.78;;;20.10;93.10;;;;;;5019709;28;20053;-92
2021/07/22 05:10:10;;;;;;;12.60;6.82;;;20.10;93.00;;;;;;5023816;28;20305;-94
2021/07/22 05:12:38;;;;;;;7.70;5.70;;;20.10;93.30;;;;;;5019844;28;20053;-91
2021/07/22 05:16:07;;;;;;;10.77;6.53;;;20.10;93.30;;;;;;5021938;28;20034;-95
2021/07/22 05:18:49;;;;;;;8.32;6.20;;;20.20;92.90;;;;;;5020052;28;20033;-93
2021/07/22 05:21:22;;;;;;;10.55;7.28;;;20.20;92.90;;;;;;5021543;28;20038;-92
2021/07/22 05:24:27;;;;;;;12.32;6.88;;;20.20;93.00;;;;;;5019880;28;20034;-91
2021/07/22 05:27:36;;;;;;;10.73;6.30;;;20.20;92.80;;;;;;5023102;28;20038;-93
2021/07/22 05:30:11;;;;;;;13.02;6.30;;;20.30;92.90;;;;;;5033006;28;20093;-94
2021/07/22 05:32:56;;;;;;;8.65;6.13;;;20.30;92.90;;;;;;5021700;28;20042;-94
2021/07/22 05:35:22;;;;;;;15.75;7.95;;;20.30;93.20;;;;;;5019027;28;20033;-92
2021/07/22 05:37:47;;;;;;;12.15;5.90;;;20.40;93.20;;;;;;5018092;28;20037;-90
2021/07/22 05:40:15;;;;;;;9.63;6.07;;;20.40;92.90;;;;;;5028789;28;20034;-91
2021/07/22 05:42:41;;;;;;;12.98;7.25;;;20.40;92.80;;;;;;5032341;28;20046;-92
2021/07/22 05:45:10;;;;;;;12.82;6.97;;;20.50;92.70;;;;;;5018041;28;20084;-92
2021/07/22 05:47:35;;;;;;;9.63;6.10;;;20.50;92.50;;;;;;5017802;28;20034;-92
2021/07/22 05:50:01;;;;;;;14.07;7.47;;;20.60;92.60;;;;;;5017870;28;20065;-92
2021/07/22 05:52:26;;;;;;;11.57;7.53;;;20.60;92.50;;;;;;5018079;28;20052;-92
2021/07/22 05:54:52;;;;;;;12.23;6.88;;;20.70;92.50;;;;;;5017940;28;20056;-92
2021/07/22 05:57:23;;;;;;;13.43;6.35;;;20.70;92.50;;;;;;5018699;28;20151;-93
2021/07/22 05:59:48;;;;;;;9.93;7.30;;;20.80;92.20;;;;;;5023966;28;20040;-92
2021/07/22 06:02:14;;;;;;;12.55;7.03;;;20.80;92.70;;;;;;5031402;28;20061;-91
2021/07/22 06:05:01;;;;;;;13.13;6.28;;;20.90;92.50;;;;;;5019176;28;20112;-91
2021/07/22 06:07:27;;;;;;;10.35;6.40;;;21.00;91.90;;;;;;5018642;28;20148;-91
2021/07/22 06:09:57;;;;;;;12.50;5.97;;;21.00;91.60;;;;;;5017837;28;20069;-92
2021/07/22 06:12:27;;;;;;;9.23;6.78;;;21.10;91.30;;;;;;5017527;28;20042;-92
2021/07/22 06:14:57;;;;;;;8.80;5.97;;;21.10;90.90;;;;;;5017777;28;20038;-92
2021/07/22 06:17:23;;;;;;;10.52;6.75;;;21.10;90.50;;;;;;5019383;28;20393;-93
2021/07/22 06:20:04;;;;;;;8.13;6.20;;;21.10;90.60;;;;;;5017659;28;20053;-92
2021/07/22 06:22:30;;;;;;;9.57;6.30;;;21.20;90.20;;;;;;5017787;28;20048;-93
2021/07/22 06:24:56;;;;;;;9.15;6.90;;;21.20;91.10;;;;;;5016719;28;20045;-92
2021/07/22 06:27:24;;;;;;;9.15;5.97;;;21.20;90.30;;;;;;5017740;28;20042;-92
2021/07/22 06:29:50;;;;;;;15.55;6.88;;;21.20;90.30;;;;;;5017241;28;20281;-93
2021/07/22 06:32:15;;;;;;;13.40;7.32;;;21.30;90.50;;;;;;5014684;28;20046;-93
2021/07/22 06:35:40;;;;;;;11.38;6.07;;;21.30;90.10;;;;;;5002358;28;20045;-92
2021/07/22 06:38:06;;;;;;;8.23;5.35;;;21.30;90.00;;;;;;5041569;28;20140;-92
2021/07/22 06:40:33;;;;;;;10.40;5.72;;;21.30;89.20;;;;;;5018338;28;20070;-92
2021/07/22 06:42:58;;;;;;;10.10;6.18;;;21.40;88.80;;;;;;5018787;28;20133;-92
2021/07/22 06:45:24;;;;;;;11.93;6.60;;;21.40;88.80;;;;;;5020828;28;20065;-91
2021/07/22 06:47:50;;;;;;;8.82;5.65;;;21.50;88.40;;;;;;5030506;28;20045;-92
2021/07/22 06:50:15;;;;;;;10.70;6.75;;;21.50;88.60;;;;;;5033652;28;20158;-91
2021/07/22 06:52:56;;;;;;;14.32;6.18;;;21.60;89.60;;;;;;5027388;28;20049;-94
2021/07/22 06:55:21;;;;;;;11.82;6.25;;;21.60;87.80;;;;;;5005059;28;20444;-90
2021/07/22 06:57:52;;;;;;;11.70;6.78;;;21.70;88.30;;;;;;5006353;28;20042;-92
2021/07/22 07:00:18;;;;;;;12.32;5.55;;;21.70;87.90;;;;;;5013632;28;20022;-93
2021/07/22 07:03:02;;;;;;;12.15;5.35;;;21.80;88.40;;;;;;5015682;28;20037;-92
2021/07/22 07:05:28;;;;;;;7.18;5.07;;;21.90;88.40;;;;;;5028574;28;20041;-92
2021/07/22 07:08:02;;;;;;;9.77;5.88;;;22.10;86.40;;;;;;5022512;28;20313;-92
2021/07/22 07:10:28;;;;;;;9.27;5.20;;;22.10;86.70;;;;;;5025349;28;20340;-91
2021/07/22 07:13:04;;;;;;;9.73;5.82;;;22.10;86.80;;;;;;5032150;28;20080;-92
2021/07/22 07:15:33;;;;;;;8.27;4.95;;;22.20;86.00;;;;;;5022549;28;20033;-92
2021/07/22 07:18:02;;;;;;;9.27;5.07;;;22.20;85.50;;;;;;5020962;28;20037;-91
2021/07/22 07:20:28;;;;;;;9.10;5.10;;;22.30;85.70;;;;;;5023971;28;20034;-91
2021/07/22 07:22:56;;;;;;;16.35;5.70;;;22.30;85.10;;;;;;5021159;28;20099;-91
2021/07/22 07:25:29;;;;;;;16.00;5.80;;;22.30;85.70;;;;;;5020921;28;20453;-92
2021/07/22 07:27:55;;;;;;;11.73;5.43;;;22.40;87.60;;;;;;5020263;28;20128;-92
2021/07/22 07:30:21;;;;;;;9.65;5.18;;;22.30;85.80;;;;;;5020921;28;20061;-93
2021/07/22 07:33:09;;;;;;;8.77;4.65;;;22.40;84.70;;;;;;5020225;28;20050;-92
2021/07/22 07:35:35;;;;;;;7.43;4.60;;;22.50;85.10;;;;;;5020578;28;20132;-92
2021/07/22 07:38:03;;;;;;;9.23;5.78;;;22.60;85.30;;;;;;5020135;28;20037;-92
2021/07/22 07:40:29;;;;;;;10.05;5.00;;;22.80;82.50;;;;;;5035902;28;20033;-91
2021/07/22 07:42:54;;;;;;;8.20;4.80;;;22.80;82.70;;;;;;5056487;28;20034;-91
2021/07/22 07:45:28;;;;;;;9.10;5.15;;;22.90;81.70;;;;;;5062642;28;20045;-92
2021/07/22 07:47:54;;;;;;;8.05;5.20;;;22.90;81.90;;;;;;5033420;28;20041;-92
2021/07/22 07:50:20;;;;;;;10.25;5.07;;;23.00;81.80;;;;;;5020664;28;20036;-92
2021/07/22 07:52:48;;;;;;;10.45;5.25;;;23.10;81.90;;;;;;5020161;28;20045;-93
2021/07/22 07:55:14;;;;;;;7.88;5.28;;;23.10;82.20;;;;;;5020206;28;20038;-92
2021/07/22 07:58:18;;;;;;;8.88;4.90;;;23.10;81.90;;;;;;5018981;28;20057;-92
2021/07/22 08:00:48;;;;;;;8.27;5.18;;;23.20;83.50;;;;;;5026015;28;20029;-92
2021/07/22 08:03:28;;;;;;;10.77;4.90;;;23.30;81.30;;;;;;5047204;28;20052;-93
2021/07/22 08:05:53;;;;;;;7.57;5.05;;;23.40;81.90;;;;;;5021639;28;20056;-93
2021/07/22 08:08:34;;;;;;;9.52;5.93;;;23.50;81.30;;;;;;5030304;28;20038;-93
2021/07/22 08:11:21;;;;;;;10.15;4.85;;;23.50;81.20;;;;;;5021845;28;20327;-91
2021/07/22 08:13:47;;;;;;;9.30;4.82;;;23.60;82.00;;;;;;5020714;28;20041;-92
2021/07/22 08:16:38;;;;;;;10.77;5.20;;;23.70;82.60;;;;;;5019892;28;20411;-92
2021/07/22 08:19:06;;;;;;;8.70;5.03;;;23.80;81.20;;;;;;5018560;28;20033;-92
2021/07/22 08:21:32;;;;;;;9.45;4.95;;;23.90;82.80;;;;;;5016548;28;20092;-94
2021/07/22 08:24:08;;;;;;;;;;;;;;;;;;;;;
2021/07/22 08:26:33;;;;;;;7.07;4.95;;;24.20;79.50;;;;;;5024160;28;20145;-91
2021/07/22 08:28:59;;;;;;;7.90;4.88;;;24.20;79.60;;;;;;5020196;28;20080;-93
2021/07/22 08:31:26;;;;;;;7.90;5.10;;;24.30;80.50;;;;;;5019538;28;20344;-92
2021/07/22 08:36:50;;;;;;;10.07;5.05;;;24.60;79.00;;;;;;5019189;28;20034;-90
2021/07/22 08:39:23;;;;;;;7.45;4.53;;;24.70;78.10;;;;;;5018962;28;20041;-92
2021/07/22 08:41:55;;;;;;;8.10;5.13;;;24.70;76.90;;;;;;5019467;28;20624;-92
2021/07/22 08:44:25;;;;;;;8.18;5.07;;;24.70;76.70;;;;;;5017408;28;20034;-92
2021/07/22 08:46:53;;;;;;;11.57;4.95;;;24.80;78.10;;;;;;5019032;28;20069;-92
2021/07/22 08:49:22;;;;;;;6.03;4.35;;;24.90;75.90;;;;;;5018934;28;20278;-92
2021/07/22 08:58:47;;;;;;;11.38;5.47;;;25.40;74.00;;;;;;5027769;28;20022;-93
2021/07/22 09:01:16;;;;;;;7.25;4.53;;;25.50;76.00;;;;;;5023274;28;20034;-94
2021/07/22 09:03:42;;;;;;;7.28;4.53;;;25.60;75.70;;;;;;5016591;28;20034;-93
2021/07/22 09:06:39;;;;;;;7.15;4.68;;;25.60;72.80;;;;;;5018278;28;20598;-95
2021/07/22 09:09:19;;;;;;;7.40;5.32;;;25.70;72.60;;;;;;5035288;28;20105;-94
2021/07/22 09:12:29;;;;;;;9.75;5.32;;;25.70;75.00;;;;;;5018373;28;20076;-93
2021/07/22 09:14:57;;;;;;;7.55;4.88;;;25.90;75.30;;;;;;5017732;28;20049;-93
2021/07/22 09:17:31;;;;;;;9.98;5.03;;;26.10;73.90;;;;;;5017905;28;20278;-94
2021/07/22 09:21:21;;;;;;;;;;;;;;;;;;;;;
2021/07/22 09:27:09;;;;;;;7.57;4.45;;;26.20;72.70;;;;;;4951376;28;20033;-92
2021/07/22 09:33:38;;;;;;;8.05;5.20;;;26.30;69.70;;;;;;5036612;28;20042;-92
2021/07/22 09:36:11;;;;;;;6.25;4.55;;;26.30;72.20;;;;;;5017380;28;20034;-90
2021/07/22 09:38:36;;;;;;;9.15;5.03;;;26.30;72.70;;;;;;4999108;28;20047;-92
2021/07/22 09:43:54;;;;;;;11.00;6.40;;;26.50;71.80;;;;;;4940609;29;20036;-92
2021/07/22 09:49:45;;;;;;;8.50;6.22;;;26.60;66.60;;;;;;4998734;28;20037;-93
2021/07/22 09:59:11;;;;;;;9.02;5.35;;;26.70;66.60;;;;;;4986936;28;20096;-92
2021/07/22 10:01:44;;;;;;;12.07;6.47;;;26.80;69.20;;;;;;5022264;28;20523;-91
2021/07/22 10:04:45;;;;;;;10.90;5.30;;;27.10;68.00;;;;;;5019073;28;20030;-93
2021/07/22 10:07:49;;;;;;;8.30;6.15;;;27.20;67.00;;;;;;5019209;28;20047;-92
2021/07/22 10:10:18;;;;;;;10.35;7.13;;;27.20;65.10;;;;;;5032802;28;20029;-93
2021/07/22 10:13:22;;;;;;;11.52;7.18;;;26.90;65.40;;;;;;5021843;28;20085;-94
2021/07/22 10:16:19;;;;;;;11.30;7.20;;;26.80;62.80;;;;;;5013590;28;20116;-94
2021/07/22 10:19:00;;;;;;;12.48;7.22;;;26.70;63.30;;;;;;5018081;28;20361;-92
2021/07/22 10:21:27;;;;;;;11.05;7.63;;;26.60;63.00;;;;;;5014644;28;20042;-93
2021/07/22 10:23:53;;;;;;;12.65;7.75;;;26.60;64.70;;;;;;5020188;28;20041;-92
2021/07/22 10:26:39;;;;;;;12.63;8.15;;;26.60;63.60;;;;;;5054323;28;20041;-92
2021/07/22 10:33:05;;;;;;;11.60;7.00;;;26.70;61.20;;;;;;4975247;28;20065;-92
2021/07/22 10:39:14;;;;;;;11.07;7.80;;;26.90;59.00;;;;;;4980837;28;20073;-94
2021/07/22 10:42:06;;;;;;;11.57;7.97;;;27.00;59.80;;;;;;4965182;28;20042;-93
2021/07/22 10:44:32;;;;;;;12.68;8.38;;;26.90;58.50;;;;;;5049544;28;20037;-92
2021/07/22 10:47:07;;;;;;;12.85;8.50;;;26.90;57.10;;;;;;5029400;28;20126;-92
2021/07/22 10:49:42;;;;;;;13.32;8.68;;;26.90;54.50;;;;;;5020877;28;20038;-93
2021/07/22 10:52:13;;;;;;;12.45;8.60;;;26.90;57.60;;;;;;5021422;28;20089;-93
2021/07/22 10:54:57;;;;;;;10.63;7.38;;;26.90;59.10;;;;;;5020782;28;20034;-92
2021/07/22 10:57:45;;;;;;;13.50;7.05;;;26.90;58.10;;;;;;5020687;28;20038;-92
2021/07/22 11:00:52;;;;;;;9.73;6.53;;;26.80;59.70;;;;;;5020173;28;20410;-94
2021/07/22 11:03:43;;;;;;;9.70;6.63;;;26.60;60.60;;;;;;5000253;28;20321;-92
2021/07/22 11:06:28;;;;;;;9.43;6.43;;;26.50;60.00;;;;;;5019994;28;20034;-94
2021/07/22 11:09:14;;;;;;;9.55;6.25;;;26.40;61.00;;;;;;5019664;28;20128;-94
2021/07/22 11:11:49;;;;;;;8.93;6.55;;;26.40;62.10;;;;;;5019744;28;20043;-94
2021/07/22 11:14:53;;;;;;;11.68;6.65;;;26.30;58.30;;;;;;5020636;28;20034;-92
2021/07/22 11:20:56;;;;;;;9.55;6.38;;;26.10;57.50;;;;;;5026857;28;20042;-93
2021/07/22 11:24:09;;;;;;;12.23;6.70;;;26.00;58.90;;;;;;5021822;28;20037;-93
2021/07/22 11:26:51;;;;;;;;;;;26.00;61.70;;;;;;4997455;28;20109;-96
2021/07/22 11:29:17;;;;;;;8.68;6.20;;;26.00;61.40;;;;;;5019988;28;20225;-93
2021/07/22 11:32:07;;;;;;;10.52;7.05;;;26.00;63.30;;;;;;5020199;28;20038;-93
2021/07/22 11:41:59;;;;;;;11.98;6.07;;;26.20;60.30;;;;;;5015354;28;20071;-92
2021/07/22 11:45:02;;;;;;;10.75;7.25;;;26.20;60.90;;;;;;5033639;28;20385;-93
2021/07/22 11:51:35;;;;;;;;;;;;;;;;;;;;;
2021/07/22 11:54:02;;;;;;;11.52;6.53;;;26.40;64.00;;;;;;4925471;29;20031;-93
2021/07/22 11:56:36;;;;;;;11.07;6.57;;;26.60;59.90;;;;;;4962508;28;20094;-94
2021/07/22 11:59:07;;;;;;;10.23;6.65;;;26.60;61.20;;;;;;4962899;28;20047;-93
2021/07/22 12:01:59;;;;;;;9.57;7.15;;;26.60;59.90;;;;;;4974159;28;20129;-93
2021/07/22 12:04:52;;;;;;;;;;;;;;;;;;;;;
2021/07/22 12:07:38;;;;;;;11.02;7.53;;;26.70;59.00;;;;;;5021161;28;20439;-92
2021/07/22 12:10:05;;;;;;;10.52;7.40;;;26.80;58.10;;;;;;5020012;28;20040;-92
2021/07/22 12:13:08;;;;;;;;;;;;;;;;;;;;;
2021/07/22 12:19:00;;;;;;;11.32;7.15;;;26.90;57.30;;;;;;4978364;28;20412;-93
2021/07/22 12:22:24;;;;;;;9.13;6.95;;;26.90;56.60;;;;;;4999090;28;20065;-94
2021/07/22 12:25:32;;;;;;;10.02;7.03;;;26.80;58.70;;;;;;4993175;28;20041;-93
2021/07/22 12:27:58;;;;;;;11.85;6.57;;;26.90;58.00;;;;;;4986699;28;20038;-92
2021/07/22 12:31:13;;;;;;;10.40;7.28;;;26.90;58.40;;;;;;5001425;28;20045;-93
2021/07/22 12:33:39;;;;;;;12.70;7.20;;;26.90;59.20;;;;;;5015644;28;20440;-93
2021/07/22 12:36:18;;;;;;;10.85;7.90;;;27.00;58.20;;;;;;5005520;28;20038;-93
2021/07/22 12:38:47;;;;;;;9.80;6.75;;;27.10;58.50;;;;;;5000055;28;20448;-93
2021/07/22 12:41:17;;;;;;;11.93;7.10;;;27.20;56.90;;;;;;5000311;28;20038;-94
2021/07/22 12:44:51;;;;;;;12.15;7.80;;;27.30;58.20;;;;;;5002929;28;20034;-94
2021/07/22 12:51:07;;;;;;;12.77;8.55;;;27.40;58.40;;;;;;5012501;28;20031;-93
2021/07/22 12:56:54;;;;;;;10.30;7.82;;;27.50;58.70;;;;;;4983197;28;20014;-95
2021/07/22 12:59:30;;;;;;;12.90;7.65;;;27.60;59.00;;;;;;5032994;28;20056;-94
2021/07/22 13:02:30;;;;;;;9.27;7.47;;;27.80;58.40;;;;;;5021747;28;20237;-95
2021/07/22 13:05:04;;;;;;;10.57;7.10;;;27.80;57.50;;;;;;5011397;28;20062;-91
2021/07/22 13:07:33;;;;;;;11.07;7.85;;;27.90;58.30;;;;;;5030093;28;20412;-93
2021/07/22 13:09:59;;;;;;;14.00;8.02;;;27.90;58.30;;;;;;5023165;28;20048;-93
2021/07/22 13:12:33;;;;;;;11.98;8.45;;;27.90;56.20;;;;;;5018526;28;20132;-94
2021/07/22 13:15:16;;;;;;;11.65;8.50;;;28.00;56.10;;;;;;4998761;28;20289;-93
2021/07/22 13:17:43;;;;;;;10.93;7.95;;;28.10;57.10;;;;;;5004153;28;20069;-86
2021/07/22 13:20:18;;;;;;;10.57;8.57;;;28.10;56.40;;;;;;5035008;28;20047;-90
2021/07/22 13:22:50;;;;;;;10.52;8.00;;;28.20;58.20;;;;;;5018672;28;20100;-89
2021/07/22 13:25:16;;;;;;;11.07;8.37;;;28.10;56.30;;;;;;5023689;28;20038;-90
2021/07/22 13:27:42;;;;;;;11.23;8.32;;;28.20;57.90;;;;;;5028762;28;20335;-92
2021/07/22 13:30:09;;;;;;;14.63;8.18;;;28.20;56.20;;;;;;5020108;28;20033;-93
2021/07/22 13:32:36;;;;;;;10.75;7.53;;;28.10;56.20;;;;;;5019459;28;20382;-91
2021/07/22 13:35:06;;;;;;;12.73;8.90;;;28.00;58.00;;;;;;5018591;28;20405;-92
2021/07/22 13:37:32;;;;;;;11.05;7.85;;;27.90;59.00;;;;;;5019032;28;20068;-93
2021/07/22 13:39:58;;;;;;;11.95;8.23;;;27.80;56.20;;;;;;5035345;28;20125;-92
2021/07/22 13:42:24;;;;;;;11.98;8.18;;;27.80;56.10;;;;;;5018605;28;20052;-93
2021/07/22 13:44:50;;;;;;;14.48;10.18;;;27.80;57.40;;;;;;5018677;28;20044;-92
2021/07/22 13:47:15;;;;;;;14.85;9.73;;;27.70;56.60;;;;;;5017947;28;20042;-91
2021/07/22 13:49:41;;;;;;;10.80;8.65;;;27.70;57.80;;;;;;5020207;28;20048;-92
2021/07/22 13:52:06;;;;;;;11.65;8.73;;;27.70;56.20;;;;;;5018969;28;20054;-93
2021/07/22 13:55:06;;;;;;;11.60;8.45;;;27.70;57.80;;;;;;5019563;28;20129;-93
2021/07/22 13:57:31;;;;;;;10.93;8.88;;;27.80;55.10;;;;;;5034623;28;20033;-93
2021/07/22 13:59:57;;;;;;;13.63;9.82;;;27.90;57.20;;;;;;5021662;28;20046;-94
2021/07/22 14:02:23;;;;;;;11.45;8.68;;;28.00;57.20;;;;;;5020906;28;20111;-93
2021/07/22 14:04:48;;;;;;;11.40;8.85;;;28.10;58.40;;;;;;5023118;28;20037;-92
2021/07/22 14:07:13;;;;;;;15.73;9.85;;;28.30;55.70;;;;;;5019519;28;20137;-93
2021/07/22 14:09:39;;;;;;;12.38;9.43;;;28.30;55.40;;;;;;5020176;28;20120;-92
2021/07/22 14:12:05;;;;;;;12.82;8.68;;;28.20;57.60;;;;;;5022389;28;20037;-93
2021/07/22 14:14:30;;;;;;;11.00;8.85;;;28.30;54.60;;;;;;5022422;28;20141;-93
2021/07/22 14:16:55;;;;;;;12.98;9.07;;;28.30;54.50;;;;;;5021928;28;20041;-93
2021/07/22 14:19:21;;;;;;;15.85;8.88;;;28.30;56.00;;;;;;5022355;28;20301;-92
2021/07/22 14:21:50;;;;;;;12.60;9.32;;;28.30;57.20;;;;;;5016692;28;20173;-95
2021/07/22 14:24:30;;;;;;;11.15;8.48;;;28.30;57.20;;;;;;5014299;28;20042;-92
2021/07/22 14:26:56;;;;;;;10.82;8.73;;;28.30;54.80;;;;;;5023503;28;20048;-92
2021/07/22 14:29:24;;;;;;;12.65;9.52;;;28.30;54.70;;;;;;5022186;28;20038;-92
2021/07/22 14:31:50;;;;;;;12.13;9.27;;;28.20;55.80;;;;;;5028226;28;20038;-92
2021/07/22 14:34:19;;;;;;;13.75;9.95;;;28.10;55.10;;;;;;5035675;28;20127;-93
2021/07/22 14:36:46;;;;;;;13.68;10.07;;;28.00;55.50;;;;;;5039170;28;20044;-94
2021/07/22 14:39:12;;;;;;;13.13;10.32;;;27.80;55.20;;;;;;5021846;28;20108;-91
2021/07/22 14:41:37;;;;;;;12.35;9.60;;;27.70;54.30;;;;;;5021792;28;20033;-92
2021/07/22 14:44:03;;;;;;;15.52;9.77;;;27.70;53.60;;;;;;5022277;28;20105;-92
2021/07/22 14:46:29;;;;;;;12.20;9.52;;;27.50;56.20;;;;;;5021760;28;20029;-93
2021/07/22 14:48:57;;;;;;;14.43;10.57;;;27.50;54.50;;;;;;5021783;28;20139;-92
2021/07/22 14:51:23;;;;;;;14.50;10.05;;;27.50;55.30;;;;;;5038215;28;20033;-93
2021/07/22 14:53:48;;;;;;;14.52;11.35;;;27.40;57.50;;;;;;5038273;28;20037;-92
2021/07/22 14:56:14;;;;;;;14.27;10.43;;;27.40;55.90;;;;;;5037648;28;20042;-92
2021/07/22 14:58:39;;;;;;;15.93;11.43;;;27.40;55.10;;;;;;5037572;28;20065;-94
2021/07/22 15:01:06;;;;;;;13.52;10.32;;;27.30;56.20;;;;;;5038028;28;20100;-90
2021/07/22 15:03:31;;;;;;;13.25;10.05;;;27.20;55.50;;;;;;5037904;28;20073;-91
2021/07/22 15:05:59;;;;;;;13.38;9.73;;;27.20;57.60;;;;;;5038950;28;20148;-91
2021/07/22 15:08:24;;;;;;;11.65;9.30;;;27.20;56.60;;;;;;5036492;28;20076;-91
2021/07/22 15:10:50;;;;;;;14.45;9.82;;;27.20;57.70;;;;;;5023364;28;20038;-92
2021/07/22 15:13:18;;;;;;;14.43;9.35;;;27.10;58.10;;;;;;5019933;28;20042;-91
2021/07/22 15:15:44;;;;;;;12.23;9.18;;;27.10;56.30;;;;;;5019386;28;20053;-92
2021/07/22 15:18:09;;;;;;;11.27;8.80;;;27.10;58.50;;;;;;5020985;28;20030;-91
2021/07/22 15:20:35;;;;;;;10.63;8.43;;;27.20;56.00;;;;;;5021937;28;20033;-92
2021/07/22 15:23:00;;;;;;;14.75;9.32;;;27.10;56.40;;;;;;5021871;28;20034;-92
2021/07/22 15:25:26;;;;;;;15.20;8.63;;;27.20;58.60;;;;;;5022777;28;20468;-93
2021/07/22 15:27:51;;;;;;;10.93;8.35;;;27.20;58.60;;;;;;5021971;28;20100;-92
2021/07/22 15:30:17;;;;;;;15.38;9.27;;;27.20;55.80;;;;;;5022915;28;20037;-92
2021/07/22 15:32:43;;;;;;;10.82;8.18;;;27.20;56.10;;;;;;5021060;28;20065;-92
2021/07/22 15:35:09;;;;;;;13.98;8.15;;;27.10;58.40;;;;;;5020606;28;20030;-92
2021/07/22 15:37:37;;;;;;;12.57;9.20;;;27.10;56.50;;;;;;5020628;28;20129;-91
2021/07/22 15:40:03;;;;;;;13.45;8.27;;;27.10;57.10;;;;;;5021219;28;20088;-92
2021/07/22 15:42:29;;;;;;;11.77;7.97;;;27.00;57.00;;;;;;5023722;28;20469;-94
2021/07/22 15:44:55;;;;;;;10.52;7.65;;;27.00;58.50;;;;;;5039785;28;20084;-90
2021/07/22 15:47:20;;;;;;;11.95;8.20;;;27.00;58.80;;;;;;5039660;28;20121;-91
2021/07/22 15:49:46;;;;;;;10.65;7.75;;;27.00;56.90;;;;;;5028542;28;20053;-92
2021/07/22 15:52:12;;;;;;;9.98;7.13;;;27.00;58.90;;;;;;5023142;28;20049;-91
2021/07/22 15:54:37;;;;;;;10.43;7.85;;;27.00;57.70;;;;;;5027453;28;20037;-92
2021/07/22 15:57:03;;;;;;;10.75;7.95;;;27.00;58.30;;;;;;5035451;28;20042;-92
2021/07/22 15:59:28;;;;;;;11.55;6.80;;;27.00;57.60;;;;;;5021418;28;20068;-92
2021/07/22 16:01:54;;;;;;;10.18;7.22;;;27.00;57.40;;;;;;5020696;28;20076;-91
2021/07/22 16:04:33;;;;;;;13.02;7.53;;;26.90;57.30;;;;;;5037123;28;20054;-92
2021/07/22 16:06:58;;;;;;;9.70;6.78;;;26.80;57.50;;;;;;5019268;28;20084;-90
2021/07/22 16:09:33;;;;;;;10.07;7.30;;;26.70;58.90;;;;;;5019683;28;20038;-93
2021/07/22 16:11:59;;;;;;;11.43;7.30;;;26.70;58.90;;;;;;5019634;28;20445;-89
2021/07/22 16:18:54;;;;;;;;;;;;;;;;;;;;;
2021/07/22 16:21:35;;;;;;;9.55;6.82;;;26.60;58.60;;;;;;4916380;29;20071;-93